createdAt,value
2018-02-15T00:00:52.431Z,31.67
2018-02-15T00:03:18.575Z,30.30
2018-02-15T00:05:44.740Z,28.27
2018-02-15T00:08:11.645Z,29.80
2018-02-15T00:10:37.812Z,30.73
2018-02-15T00:13:04.721Z,31.45
2018-02-15T00:15:31.635Z,28.77
2018-02-15T00:17:57.831Z,37.38
2018-02-15T00:20:23.969Z,30.17
2018-02-15T00:22:50.181Z,33.63
2018-02-15T00:25:16.352Z,28.02
2018-02-15T00:27:42.531Z,30.30
2018-02-15T00:30:08.724Z,23.55
2018-02-15T00:32:34.903Z,35.25
2018-02-15T00:35:01.073Z,26.67
2018-02-15T00:37:27.996Z,34.30
2018-02-15T00:39:54.167Z,23.35
2018-02-15T00:42:20.375Z,31.30
2018-02-15T00:44:47.300Z,27.48
2018-02-15T00:47:13.460Z,27.27
2018-02-15T00:49:39.843Z,32.65
2018-02-15T00:52:05.991Z,25.15
2018-02-15T00:54:32.139Z,28.15
2018-02-15T00:56:59.119Z,28.92
2018-02-15T00:59:26.032Z,22.67
2018-02-15T01:01:52.991Z,33.40
2018-02-15T01:04:19.521Z,24.12
2018-02-15T01:06:45.695Z,30.90
2018-02-15T01:09:17.898Z,27.13
2018-02-15T01:11:46.504Z,27.67
2018-02-15T01:14:12.684Z,31.42
2018-02-15T01:16:38.854Z,33.47
2018-02-15T01:19:05.036Z,29.25
2018-02-15T01:21:31.211Z,27.27
2018-02-15T01:23:58.099Z,25.80
2018-02-15T01:26:24.265Z,27.02
2018-02-15T01:28:50.455Z,36.22
2018-02-15T01:31:16.612Z,29.73
2018-02-15T01:33:42.760Z,39.10
2018-02-15T01:36:09.675Z,43.22
2018-02-15T01:38:35.834Z,32.53
2018-02-15T01:41:01.993Z,30.85
2018-02-15T01:43:29.091Z,29.90
2018-02-15T01:45:55.287Z,32.22
2018-02-15T01:48:22.192Z,29.67
2018-02-15T01:50:48.524Z,35.15
2018-02-15T01:53:14.684Z,36.60
2018-02-15T01:55:40.855Z,36.42
2018-02-15T01:58:07.281Z,34.40
2018-02-15T02:00:34.244Z,28.58
2018-02-15T02:03:00.433Z,35.80
2018-02-15T02:05:26.599Z,29.12
2018-02-15T02:07:53.504Z,40.30
2018-02-15T02:10:19.663Z,35.83
2018-02-15T02:12:45.863Z,31.52
2018-02-15T02:15:12.072Z,34.03
2018-02-15T02:17:38.256Z,30.20
2018-02-15T02:20:04.443Z,39.78
2018-02-15T02:22:30.610Z,31.75
2018-02-15T02:24:56.763Z,34.45
2018-02-15T02:27:22.917Z,36.95
2018-02-15T02:29:49.828Z,37.20
2018-02-15T02:32:16.235Z,34.05
2018-02-15T02:34:42.412Z,32.72
2018-02-15T02:37:08.567Z,34.00
2018-02-15T02:39:35.674Z,40.17
2018-02-15T02:42:01.859Z,31.50
2018-02-15T02:44:28.758Z,33.42
2018-02-15T02:46:55.082Z,36.42
2018-02-15T02:49:21.260Z,33.42
2018-02-15T02:51:47.440Z,36.10
2018-02-15T02:54:13.625Z,31.60
2018-02-15T02:56:40.548Z,40.70
2018-02-15T02:59:07.896Z,42.08
2018-02-15T03:01:34.057Z,27.75
2018-02-15T03:04:00.224Z,29.95
2018-02-15T03:06:26.432Z,34.83
2018-02-15T03:08:52.585Z,27.40
2018-02-15T03:11:19.500Z,34.22
2018-02-15T03:13:47.704Z,31.98
2018-02-15T03:16:14.520Z,32.53
2018-02-15T03:18:40.671Z,33.03
2018-02-15T03:21:06.820Z,41.53
2018-02-15T03:23:33.727Z,36.15
2018-02-15T03:25:59.879Z,33.40
2018-02-15T03:28:26.150Z,41.45
2018-02-15T03:30:53.056Z,42.53
2018-02-15T03:33:19.248Z,32.42
2018-02-15T03:35:45.412Z,32.10
2018-02-15T03:38:11.596Z,34.22
2018-02-15T03:40:38.524Z,31.40
2018-02-15T03:43:04.695Z,35.90
2018-02-15T03:45:30.851Z,30.62
2018-02-15T03:47:57.396Z,24.70
2018-02-15T03:50:24.319Z,29.08
2018-02-15T03:52:50.487Z,35.95
2018-02-15T03:55:16.655Z,30.15
2018-02-15T03:57:42.909Z,38.08
2018-02-15T04:00:09.495Z,27.85
2018-02-15T04:02:35.659Z,30.55
2018-02-15T04:05:02.578Z,31.95
2018-02-15T04:07:28.751Z,29.52
2018-02-15T04:09:55.264Z,29.15
2018-02-15T04:12:21.460Z,34.80
2018-02-15T04:14:48.323Z,34.40
2018-02-15T04:17:14.532Z,35.08
2018-02-15T04:19:40.701Z,34.95
2018-02-15T04:22:06.876Z,35.15
2018-02-15T04:24:34.079Z,28.52
2018-02-15T04:27:01.007Z,36.63
2018-02-15T04:29:27.168Z,32.30
2018-02-15T04:31:53.367Z,30.00
2018-02-15T04:34:19.532Z,31.55
2018-02-15T04:36:45.687Z,32.33
2018-02-15T04:39:11.883Z,27.65
2018-02-15T04:41:38.044Z,30.40
2018-02-15T04:44:04.240Z,36.55
2018-02-15T04:46:31.171Z,32.25
2018-02-15T04:48:58.076Z,30.10
2018-02-15T04:51:24.271Z,29.95
2018-02-15T04:53:50.640Z,36.03
2018-02-15T04:56:17.576Z,36.28
2018-02-15T04:58:43.875Z,38.45
2018-02-15T05:01:10.331Z,31.95
2018-02-15T05:03:36.533Z,30.67
2018-02-15T05:06:02.699Z,32.25
2018-02-15T05:08:29.887Z,38.22
2018-02-15T05:10:56.043Z,37.85
2018-02-15T05:13:22.231Z,46.90
2018-02-15T05:15:48.428Z,31.83
2018-02-15T05:18:16.859Z,34.17
2018-02-15T05:20:43.700Z,35.80
2018-02-15T05:23:10.164Z,34.75
2018-02-15T05:25:36.329Z,45.78
2018-02-15T05:28:02.495Z,41.17
2018-02-15T05:30:29.422Z,45.63
2018-02-15T05:32:55.628Z,31.20
2018-02-15T05:35:21.823Z,51.00
2018-02-15T05:37:48.021Z,36.75
2018-02-15T05:40:14.188Z,35.40
2018-02-15T05:42:40.349Z,36.53
2018-02-15T05:47:34.956Z,46.35
2018-02-15T05:50:01.116Z,44.25
2018-02-15T05:52:27.272Z,41.47
2018-02-15T05:54:53.455Z,34.88
2018-02-15T05:57:19.598Z,31.90
2018-02-15T05:59:45.744Z,41.22
2018-02-15T06:02:11.947Z,36.35
2018-02-15T06:04:38.212Z,46.22
2018-02-15T06:07:04.379Z,36.95
2018-02-15T06:09:30.528Z,38.63
2018-02-15T06:11:57.446Z,35.80
2018-02-15T06:14:24.393Z,34.08
2018-02-15T06:16:52.036Z,39.05
2018-02-15T06:19:18.208Z,37.05
2018-02-15T06:21:45.156Z,40.35
2018-02-15T06:24:12.104Z,39.45
2018-02-15T06:26:38.271Z,35.05
2018-02-15T06:29:04.465Z,37.75
2018-02-15T06:31:31.383Z,40.05
2018-02-15T06:33:57.560Z,43.17
2018-02-15T06:36:23.841Z,41.30
2018-02-15T06:38:50.018Z,40.95
2018-02-15T06:41:16.228Z,39.40
2018-02-15T06:43:42.423Z,42.30
2018-02-15T06:46:09.379Z,45.53
2018-02-15T06:48:35.572Z,37.45
2018-02-15T06:51:02.809Z,45.00
2018-02-15T06:53:28.985Z,47.20
2018-02-15T06:55:55.174Z,40.78
2018-02-15T06:58:23.385Z,39.22
2018-02-15T07:00:49.711Z,35.00
2018-02-15T07:03:16.228Z,45.03
2018-02-15T07:05:42.463Z,46.83
2018-02-15T07:08:08.630Z,38.13
2018-02-15T07:10:34.805Z,47.70
2018-02-15T07:13:00.971Z,50.30
2018-02-15T07:15:27.221Z,38.08
2018-02-15T07:17:54.284Z,50.40
2018-02-15T07:20:20.551Z,43.30
2018-02-15T07:22:46.727Z,41.70
2018-02-15T07:25:12.924Z,44.83
2018-02-15T07:27:39.118Z,42.50
2018-02-15T07:30:06.780Z,54.25
2018-02-15T07:32:32.948Z,49.60
2018-02-15T07:34:59.379Z,49.78
2018-02-15T07:37:25.568Z,47.75
2018-02-15T07:39:52.504Z,49.88
2018-02-15T07:42:19.064Z,43.65
2018-02-15T07:44:45.256Z,44.90
2018-02-15T07:47:11.448Z,51.10
2018-02-15T07:49:38.675Z,55.30
2018-02-15T07:52:04.880Z,49.25
2018-02-15T07:54:31.095Z,49.47
2018-02-15T07:56:57.288Z,51.42
2018-02-15T07:59:23.528Z,42.78
2018-02-15T08:01:51.180Z,46.65
2018-02-15T08:04:18.148Z,49.53
2018-02-15T08:31:32.111Z,47.05
2018-02-15T08:33:58.252Z,47.25
2018-02-15T08:36:25.127Z,51.35
2018-02-15T08:41:43.912Z,46.17
2018-02-15T08:44:10.064Z,38.80
2018-02-15T08:46:36.235Z,46.72
2018-02-15T08:49:02.400Z,44.50
2018-02-15T08:51:28.606Z,41.17
2018-02-15T08:53:54.772Z,56.03
2018-02-15T08:56:20.995Z,56.05
2018-02-15T08:58:47.863Z,48.40
2018-02-15T09:01:14.018Z,54.75
2018-02-15T09:03:40.171Z,46.25
2018-02-15T09:06:06.479Z,46.88
2018-02-15T09:08:32.634Z,48.00
2018-02-15T09:13:52.252Z,43.45
2018-02-15T09:16:19.454Z,44.20
2018-02-15T09:18:45.616Z,46.58
2018-02-15T09:21:11.772Z,48.40
2018-02-15T09:23:38.184Z,46.75
2018-02-15T09:26:04.373Z,41.72
2018-02-15T09:28:30.531Z,45.97
2018-02-15T09:30:56.684Z,45.92
2018-02-15T09:33:22.833Z,40.35
2018-02-15T09:35:48.967Z,43.25
2018-02-15T09:38:15.132Z,41.88
2018-02-15T09:40:42.027Z,46.70
2018-02-15T09:43:08.179Z,58.78
2018-02-15T09:45:34.375Z,38.85
2018-02-15T09:48:15.491Z,45.67
2018-02-15T09:50:41.675Z,48.90
2018-02-15T09:53:07.832Z,39.25
2018-02-15T09:55:33.971Z,42.42
2018-02-15T09:58:00.132Z,42.05
2018-02-15T10:00:27.011Z,45.17
2018-02-15T10:02:53.199Z,39.58
2018-02-15T10:05:19.395Z,39.05
2018-02-15T10:07:45.990Z,40.17
2018-02-15T10:10:12.134Z,37.25
2018-02-15T10:12:39.034Z,33.47
2018-02-15T10:15:05.562Z,41.20
2018-02-15T10:17:31.717Z,34.85
2018-02-15T10:19:58.088Z,41.20
2018-02-15T10:22:25.287Z,38.53
2018-02-15T10:24:51.432Z,39.83
2018-02-15T10:27:17.604Z,38.15
2018-02-15T10:29:43.792Z,37.53
2018-02-15T10:32:09.950Z,42.62
2018-02-15T10:34:36.127Z,35.83
2018-02-15T10:37:03.027Z,39.50
2018-02-15T10:39:29.183Z,41.65
2018-02-15T10:41:55.355Z,38.67
2018-02-15T10:44:21.507Z,48.80
2018-02-15T10:46:47.663Z,41.17
2018-02-15T10:49:13.990Z,45.72
2018-02-15T10:51:40.198Z,43.70
2018-02-15T10:54:06.352Z,40.30
2018-02-15T10:56:32.555Z,49.13
2018-02-15T10:58:58.731Z,37.38
2018-02-15T11:01:31.299Z,48.20
2018-02-15T11:04:03.336Z,46.35
2018-02-15T11:06:29.545Z,46.65
2018-02-15T11:08:55.907Z,46.65
2018-02-15T11:11:37.203Z,46.70
2018-02-15T11:14:03.398Z,40.45
2018-02-15T11:16:30.303Z,47.88
2018-02-15T11:18:56.503Z,43.83
2018-02-15T11:21:22.679Z,43.83
2018-02-15T11:23:48.828Z,44.47
2018-02-15T11:26:15.018Z,45.08
2018-02-15T11:28:41.179Z,52.03
2018-02-15T11:31:07.344Z,36.60
2018-02-15T11:33:34.435Z,45.80
2018-02-15T11:39:21.479Z,42.13
2018-02-15T11:41:47.594Z,41.95
2018-02-15T11:44:13.739Z,40.47
2018-02-15T11:46:39.913Z,39.00
2018-02-15T11:49:06.815Z,42.72
2018-02-15T11:51:33.001Z,47.62
2018-02-15T11:54:00.010Z,40.15
2018-02-15T11:56:27.720Z,43.20
2018-02-15T12:01:46.028Z,39.50
2018-02-15T12:04:12.213Z,41.22
2018-02-15T12:06:39.123Z,41.53
2018-02-15T12:09:05.295Z,43.97
2018-02-15T12:11:31.443Z,45.50
2018-02-15T12:13:57.611Z,45.05
2018-02-15T12:16:23.758Z,46.13
2018-02-15T12:18:49.925Z,48.40
2018-02-15T12:21:16.854Z,46.80
2018-02-15T12:23:42.971Z,43.33
2018-02-15T12:26:09.407Z,49.50
2018-02-15T12:28:35.555Z,42.08
2018-02-15T12:31:01.700Z,52.85
2018-02-15T12:33:28.623Z,49.08
2018-02-15T12:35:54.787Z,43.35
2018-02-15T12:38:20.966Z,46.45
2018-02-15T12:40:47.128Z,47.65
2018-02-15T12:43:13.279Z,50.38
2018-02-15T12:45:39.470Z,54.70
2018-02-15T12:48:05.615Z,50.38
2018-02-15T12:50:31.770Z,45.53
2018-02-15T12:52:57.943Z,50.60
2018-02-15T12:55:24.504Z,47.83
2018-02-15T12:57:50.687Z,47.83
2018-02-15T13:00:16.870Z,45.12
2018-02-15T13:02:43.044Z,52.55
2018-02-15T13:05:09.203Z,51.75
2018-02-15T13:07:36.159Z,49.90
2018-02-15T13:10:02.572Z,47.92
2018-02-15T13:12:41.228Z,46.63
2018-02-15T13:15:20.029Z,46.50
2018-02-15T13:17:46.954Z,49.25
2018-02-15T13:20:18.011Z,47.85
2018-02-15T13:22:46.144Z,51.40
2018-02-15T13:25:12.297Z,48.65
2018-02-15T13:30:38.348Z,50.35
2018-02-15T13:33:04.524Z,49.50
2018-02-15T13:35:30.671Z,47.85
2018-02-15T13:37:56.827Z,50.85
2018-02-15T13:40:22.998Z,46.35
2018-02-15T13:42:49.906Z,51.05
2018-02-15T13:45:16.100Z,50.33
2018-02-15T13:47:42.259Z,50.00
2018-02-15T13:50:08.459Z,51.05
2018-02-15T13:55:27.796Z,52.95
2018-02-15T13:57:54.003Z,55.08
2018-02-15T14:00:20.145Z,53.72
2018-02-15T14:02:46.296Z,61.40
2018-02-15T14:05:12.631Z,50.08
2018-02-15T14:07:38.801Z,57.60
2018-02-15T14:10:05.357Z,55.03
2018-02-15T14:12:32.036Z,55.35
2018-02-15T14:14:58.187Z,52.17
2018-02-15T14:17:24.339Z,55.45
2018-02-15T14:19:50.495Z,51.13
2018-02-15T14:22:17.412Z,55.12
2018-02-15T14:24:43.556Z,55.12
2018-02-15T14:27:09.943Z,51.97
2018-02-15T14:29:36.095Z,52.60
2018-02-15T14:32:02.235Z,63.80
2018-02-15T14:34:28.404Z,55.33
2018-02-15T14:39:47.464Z,52.53
2018-02-15T14:42:13.638Z,52.62
2018-02-15T14:44:39.798Z,53.58
2018-02-15T14:47:05.984Z,51.60
2018-02-15T14:49:32.910Z,54.72
2018-02-15T14:51:59.053Z,52.10
2018-02-15T14:57:46.405Z,54.35
2018-02-15T15:00:12.564Z,53.08
2018-02-15T15:02:38.712Z,55.42
2018-02-15T15:05:04.880Z,61.22
2018-02-15T15:07:31.816Z,51.35
2018-02-15T15:09:58.746Z,50.70
2018-02-15T15:12:24.900Z,53.85
2018-02-15T15:14:51.050Z,53.72
2018-02-15T15:17:17.840Z,49.53
2018-02-15T15:19:43.984Z,59.00
2018-02-15T15:22:10.119Z,58.85
2018-02-15T15:24:36.307Z,51.60
2018-02-15T15:27:03.245Z,54.65
2018-02-15T15:29:30.137Z,61.80
2018-02-15T15:31:56.329Z,56.55
2018-02-15T15:34:23.247Z,49.67
2018-02-15T15:36:49.435Z,56.97
2018-02-15T15:39:15.887Z,57.20
2018-02-15T15:41:42.057Z,55.90
2018-02-15T15:44:08.199Z,53.58
2018-02-15T15:49:26.527Z,61.42
2018-02-15T15:51:52.723Z,55.15
2018-02-15T15:57:11.921Z,58.83
2018-02-15T15:59:38.114Z,65.18
2018-02-15T16:02:04.271Z,59.13
2018-02-15T16:04:31.172Z,62.38
2018-02-15T16:06:57.356Z,62.85
2018-02-15T16:09:24.471Z,63.10
2018-02-15T16:11:50.656Z,64.85
2018-02-15T16:14:16.905Z,65.90
2018-02-15T16:16:43.042Z,64.12
2018-02-15T16:19:09.204Z,71.15
2018-02-15T16:21:35.363Z,67.62
2018-02-15T16:24:16.480Z,69.50
2018-02-15T16:26:42.656Z,80.85
2018-02-15T16:32:02.091Z,73.43
2018-02-15T16:34:28.275Z,75.70
2018-02-15T16:36:54.415Z,77.68
2018-02-15T16:39:25.418Z,78.15
2018-02-15T16:41:51.943Z,82.60
2018-02-15T16:44:18.091Z,80.93
2018-02-15T16:46:44.284Z,79.45
2018-02-15T16:49:10.471Z,72.10
2018-02-15T16:51:36.647Z,87.97
2018-02-15T16:54:03.553Z,79.10
2018-02-15T16:56:29.695Z,81.60
2018-02-15T16:58:57.363Z,78.70
2018-02-15T17:01:23.775Z,82.40
2018-02-15T17:03:49.911Z,76.70
2018-02-15T17:06:16.091Z,74.47
2018-02-15T17:08:42.291Z,76.82
2018-02-15T17:11:08.452Z,79.05
2018-02-15T17:13:35.347Z,71.07
2018-02-15T17:16:02.312Z,76.65
2018-02-15T17:18:28.459Z,75.62
2018-02-15T17:20:54.619Z,75.37
2018-02-15T17:23:20.767Z,83.20
2018-02-15T17:25:47.651Z,79.30
2018-02-15T17:28:13.824Z,71.62
2018-02-15T17:30:39.967Z,76.55
2018-02-15T17:33:06.867Z,83.20
2018-02-15T17:35:33.019Z,83.37
2018-02-15T17:37:59.183Z,87.55
2018-02-15T17:40:25.311Z,75.12
2018-02-15T17:42:52.924Z,71.32
2018-02-15T17:45:19.172Z,75.45
2018-02-15T17:47:45.323Z,75.53
2018-02-15T17:50:11.494Z,76.22
2018-02-15T17:52:37.679Z,78.33
2018-02-15T17:55:04.616Z,71.03
2018-02-15T17:57:30.767Z,76.35
2018-02-15T17:59:56.908Z,67.50
2018-02-15T18:02:24.563Z,70.62
2018-02-15T18:05:05.739Z,71.05
2018-02-15T18:07:31.891Z,74.12
2018-02-15T18:09:58.069Z,64.72
2018-02-15T18:12:24.223Z,72.40
2018-02-15T18:14:50.464Z,60.90
2018-02-15T18:17:16.910Z,70.37
2018-02-15T18:19:43.135Z,64.40
2018-02-15T18:22:11.989Z,59.63
2018-02-15T18:24:39.056Z,62.53
2018-02-15T18:27:05.271Z,74.82
2018-02-15T18:29:32.153Z,66.93
2018-02-15T18:31:58.368Z,66.62
2018-02-15T18:34:26.812Z,69.28
2018-02-15T18:36:55.505Z,68.43
2018-02-15T18:39:22.435Z,63.65
2018-02-15T18:41:48.600Z,70.07
2018-02-15T18:44:14.804Z,62.35
2018-02-15T18:46:41.082Z,66.35
2018-02-15T18:52:14.501Z,74.62
2018-02-15T18:54:42.333Z,72.68
2018-02-15T18:57:08.942Z,68.15
2018-02-15T18:59:35.843Z,77.00
2018-02-15T19:02:02.068Z,70.32
2018-02-15T19:04:29.029Z,68.18
2018-02-15T19:06:55.937Z,73.18
2018-02-15T19:09:23.092Z,76.40
2018-02-15T19:11:49.393Z,77.55
2018-02-15T19:14:15.594Z,69.40
2018-02-15T19:16:42.524Z,78.93
2018-02-15T19:19:09.131Z,82.53
2018-02-15T19:21:35.324Z,78.53
2018-02-15T19:24:01.538Z,71.82
2018-02-15T19:26:27.967Z,79.68
2018-02-15T19:28:54.147Z,69.78
2018-02-15T19:31:20.335Z,68.50
2018-02-15T19:33:50.142Z,68.97
2018-02-15T19:36:16.327Z,77.68
2018-02-15T19:41:53.411Z,72.20
2018-02-15T19:44:19.755Z,81.12
2018-02-15T19:46:45.915Z,67.32
2018-02-15T19:49:12.070Z,85.18
2018-02-15T19:51:38.535Z,68.78
2018-02-15T19:54:04.683Z,77.22
2018-02-15T19:56:31.629Z,81.45
2018-02-15T19:58:57.815Z,82.80
2018-02-15T20:01:24.724Z,89.05
2018-02-15T20:03:50.876Z,96.10
2018-02-15T20:06:17.039Z,83.25
2018-02-15T20:08:44.365Z,92.50
2018-02-15T20:11:10.507Z,98.65
2018-02-15T20:13:36.703Z,96.60
2018-02-15T20:16:02.893Z,107.00
2018-02-15T20:18:29.795Z,112.22
2018-02-15T20:20:56.116Z,112.12
2018-02-15T20:23:22.268Z,110.65
2018-02-15T20:25:54.434Z,118.75
2018-02-15T20:28:28.399Z,132.80
2018-02-15T20:30:55.484Z,138.57
2018-02-15T20:33:21.663Z,139.90
2018-02-15T20:35:47.804Z,139.68
2018-02-15T20:38:20.696Z,136.43
2018-02-15T20:40:47.596Z,136.75
2018-02-15T20:43:13.769Z,132.23
2018-02-15T20:45:39.907Z,138.10
2018-02-15T20:48:06.086Z,144.07
2018-02-15T20:50:39.118Z,133.52
2018-02-15T20:53:11.435Z,141.32
2018-02-15T20:55:41.407Z,130.25
2018-02-15T20:58:07.587Z,153.87
2018-02-15T21:00:33.779Z,129.27
2018-02-15T21:03:00.037Z,143.60
2018-02-15T21:05:26.931Z,155.95
2018-02-15T21:07:53.095Z,138.80
2018-02-15T21:10:20.021Z,151.23
2018-02-15T21:12:46.146Z,148.13
2018-02-15T21:15:12.332Z,139.68
2018-02-15T21:17:38.491Z,144.77
2018-02-15T21:20:05.637Z,147.32
2018-02-15T21:22:31.821Z,142.80
2018-02-15T21:24:57.972Z,147.77
2018-02-15T21:27:24.858Z,139.20
2018-02-15T21:29:51.007Z,154.68
2018-02-15T21:32:17.174Z,168.00
2018-02-15T21:34:43.418Z,154.12
2018-02-15T21:37:11.028Z,161.80
2018-02-15T21:39:37.174Z,157.75
2018-02-15T21:42:03.352Z,157.00
2018-02-15T21:44:29.551Z,168.75
2018-02-15T21:46:55.729Z,160.48
2018-02-15T21:49:22.930Z,143.18
2018-02-15T21:51:49.131Z,142.23
2018-02-15T21:54:16.033Z,161.82
2018-02-15T21:56:42.196Z,154.00
2018-02-15T21:59:09.091Z,130.27
2018-02-15T22:01:35.241Z,157.30
2018-02-15T22:04:01.403Z,159.85
2018-02-15T22:06:27.579Z,137.80
2018-02-15T22:08:53.835Z,143.68
2018-02-15T22:11:20.111Z,162.25
2018-02-15T22:13:46.242Z,138.68
2018-02-15T22:16:12.419Z,138.43
2018-02-15T22:18:38.770Z,135.23
2018-02-15T22:21:04.913Z,139.85
2018-02-15T22:23:31.375Z,132.40
2018-02-15T22:25:57.630Z,129.68
2018-02-15T22:28:23.771Z,139.90
2018-02-15T22:30:50.703Z,124.97
2018-02-15T22:33:16.856Z,158.75
2018-02-15T22:35:43.026Z,145.87
2018-02-15T22:38:09.202Z,129.73
2018-02-15T22:40:36.112Z,125.12
2018-02-15T22:43:02.248Z,133.93
2018-02-15T22:45:28.497Z,135.23
2018-02-15T22:47:54.683Z,131.45
2018-02-15T22:50:21.574Z,136.10
2018-02-15T22:52:47.791Z,133.35
2018-02-15T22:55:13.938Z,124.22
2018-02-15T22:57:40.089Z,136.27
2018-02-15T23:00:06.504Z,134.93
2018-02-15T23:02:32.675Z,115.17
2018-02-15T23:04:58.886Z,120.47
2018-02-15T23:07:25.040Z,112.62
2018-02-15T23:09:51.976Z,113.57
2018-02-15T23:12:18.123Z,104.20
2018-02-15T23:14:44.252Z,106.10
2018-02-15T23:17:10.424Z,111.30
2018-02-15T23:19:36.654Z,104.40
2018-02-15T23:22:02.824Z,102.70
2018-02-15T23:24:29.809Z,108.50
2018-02-15T23:26:55.967Z,109.78
2018-02-15T23:29:22.867Z,104.93
2018-02-15T23:31:49.195Z,90.87
2018-02-15T23:34:15.355Z,96.00
2018-02-15T23:36:41.495Z,92.05
2018-02-15T23:39:07.883Z,89.87
2018-02-15T23:41:34.046Z,80.65
2018-02-15T23:44:00.191Z,95.25
2018-02-15T23:46:26.369Z,77.03
2018-02-15T23:48:52.508Z,72.05
2018-02-15T23:51:18.647Z,84.10
2018-02-15T23:53:44.907Z,76.10
2018-02-15T23:56:11.055Z,83.97
2018-02-15T23:58:38.671Z,74.45
